METAR Data
IDs: Format: Raw Decoded Include TAF

Data at: 2045 UTC 18 Apr 2021

KCLW 182035Z AUTO 19010G15KT 10SM BKN021 27/21 A2984 RMK AO2
KCLW 182015Z AUTO 18009KT 10SM SCT019 27/22 A2985 RMK AO2
KCLW 181955Z AUTO 20007G16KT 10SM SCT021 SCT027 27/22 A2986 RMK AO2
KCLW 181935Z AUTO 19011G20KT 10SM BKN023 27/21 A2987 RMK AO2
KCLW 181915Z AUTO 19012G20KT 10SM BKN023 BKN029 28/21 A2987 RMK AO2
KCLW 181855Z AUTO 19009G16KT 10SM BKN025 28/21 A2988 RMK AO2
KCLW 181835Z AUTO 19014G21KT 10SM BKN025 BKN032 28/21 A2988 RMK AO2
KCLW 181815Z AUTO 21015G20KT 10SM SCT027 28/21 A2989 RMK AO2
KCLW 181755Z AUTO 22013G19KT 10SM SCT025 28/21 A2989 RMK AO2
KCLW 181735Z AUTO 22013G16KT 10SM BKN022 BKN027 28/21 A2990 RMK AO2
KCLW 181715Z AUTO 22011G16KT 10SM BKN022 OVC027 27/21 A2990 RMK AO2
KCLW 181655Z AUTO 19011G16KT 10SM BKN022 27/21 A2991 RMK AO2
KCLW 181635Z AUTO 20008KT 10SM SCT020 27/21 A2991 RMK AO2
KCLW 181615Z AUTO 20011G15KT 10SM BKN018 27/21 A2991 RMK AO2
KCLW 181555Z AUTO 19012G17KT 10SM BKN018 27/22 A2992 RMK AO2
KCLW 181535Z AUTO 20007KT 10SM BKN018 27/22 A2993 RMK AO2
KCLW 181515Z AUTO 23009KT 10SM BKN016 BKN023 26/22 A2993 RMK AO2
KCLW 181455Z AUTO 20006KT 10SM OVC014 26/22 A2993 RMK AO2
KCLW 181435Z AUTO 22009G15KT 10SM OVC016 26/22 A2994 RMK AO2
KCLW 181415Z AUTO 22010G17KT 10SM BKN016 26/22 A2993 RMK AO2
KCLW 181355Z AUTO 21008KT 170V250 10SM BKN014 25/22 A2993 RMK AO2
KCLW 181335Z AUTO 21006G16KT 10SM BKN012 25/22 A2993 RMK AO2
KCLW 181315Z AUTO 21007KT 10SM BKN010 25/22 A2993 RMK AO2
KCLW 181255Z AUTO 20007KT 10SM SCT006 24/22 A2992 RMK AO2
KCLW 181235Z AUTO 20005KT 10SM BKN006 24/22 A2991 RMK AO2
KCLW 181215Z AUTO 20004KT 10SM SCT006 23/22 A2991 RMK AO2
KCLW 181155Z AUTO 20003KT 10SM SCT006 23/22 A2991 RMK AO2
KCLW 181135Z AUTO 19004KT 10SM BKN006 BKN042 23/22 A2991 RMK AO2
KCLW 181115Z AUTO 22003KT 10SM BKN008 BKN037 OVC042 23/22 A2991 RMK AO2
KCLW 181055Z AUTO 21005KT 10SM BKN008 BKN032 OVC042 23/22 A2991 RMK AO2
KCLW 181035Z AUTO 22005KT 10SM SCT008 BKN034 OVC040 23/22 A2991 RMK AO2
KCLW 181015Z AUTO 21004KT 10SM BKN032 23/22 A2989 RMK AO2
KCLW 180955Z AUTO 23003KT 10SM SCT030 SCT090 23/22 A2989 RMK AO2
KCLW 180935Z AUTO 22004KT 10SM SCT090 23/22 A2988 RMK AO2
KCLW 180915Z AUTO 22004KT 10SM SCT028 SCT035 OVC090 23/22 A2989 RMK AO2
KCLW 180855Z AUTO 22005KT 10SM SCT028 SCT035 SCT090 23/22 A2989 RMK AO2
KCLW 180835Z AUTO 22004KT 10SM SCT007 SCT026 SCT039 23/22 A2988 RMK AO2
KCLW 180815Z AUTO 21004KT 10SM SCT007 BKN024 BKN030 23/22 A2989 RMK AO2
KCLW 180755Z AUTO 21005KT 10SM SCT007 BKN024 BKN031 23/22 A2988 RMK AO2
KCLW 180735Z AUTO 21004KT 10SM SCT007 SCT022 23/22 A2989 RMK AO2
KCLW 180715Z AUTO 23003KT 10SM SCT007 23/22 A2989 RMK AO2
KCLW 180655Z AUTO 23004KT 10SM SCT007 SCT019 SCT028 23/22 A2989 RMK AO2
KCLW 180635Z AUTO 21004KT 10SM BKN007 BKN012 BKN017 23/22 A2990 RMK AO2
KCLW 180615Z AUTO 22004KT 10SM BKN007 BKN017 OVC022 23/22 A2991 RMK AO2
KCLW 180555Z AUTO 22004KT 10SM SCT007 BKN027 OVC065 23/22 A2991 RMK AO2
KCLW 180535Z AUTO 22004KT 10SM SCT007 BKN033 OVC050 23/22 A2991 RMK AO2
KCLW 180515Z AUTO 21003KT 10SM SCT007 BKN030 OVC034 23/22 A2992 RMK AO2
KCLW 180455Z AUTO 21004KT 10SM SCT007 BKN028 OVC038 23/22 A2991 RMK AO2
KCLW 180435Z AUTO 21003KT 10SM BKN007 BKN027 OVC036 23/22 A2991 RMK AO2
KCLW 180415Z AUTO 20004KT 10SM BKN007 BKN027 23/22 A2991 RMK AO2
KCLW 180355Z AUTO 00000KT 10SM SCT007 BKN027 23/22 A2991 RMK AO2
KCLW 180335Z AUTO 22004KT 10SM SCT007 OVC029 23/22 A2991 RMK AO2
KCLW 180315Z AUTO 22005KT 10SM BKN007 OVC029 23/22 A2990 RMK AO2
KCLW 180255Z AUTO 21004KT 10SM OVC007 23/22 A2989 RMK AO2
KCLW 180235Z AUTO 22006KT 10SM BKN007 23/22 A2989 RMK AO2
KCLW 180215Z AUTO 21005KT 10SM BKN007 23/22 A2989 RMK AO2
KCLW 180155Z AUTO 21005KT 10SM BKN009 23/22 A2988 RMK AO2
KCLW 180135Z AUTO 20005KT 10SM BKN009 23/22 A2988 RMK AO2
KCLW 180115Z AUTO 21006KT 10SM SCT009 23/22 A2987 RMK AO2
KCLW 180055Z AUTO 21004KT 10SM SCT010 23/22 A2987 RMK AO2
KCLW 180035Z AUTO 21006KT 10SM CLR 24/22 A2987 RMK AO2
KCLW 180015Z AUTO 21006KT 10SM CLR 24/21 A2987 RMK AO2
KCLW 172355Z AUTO 22005KT 10SM SCT015 25/21 A2987 RMK AO2
KCLW 172335Z AUTO 21005KT 10SM SCT017 25/21 A2986 RMK AO2
KCLW 172315Z AUTO 23006KT 10SM SCT017 SCT030 25/21 A2986 RMK AO2
KCLW 172255Z AUTO 22009G14KT 10SM BKN017 BKN022 BKN030 26/21 A2986 RMK AO2
KCLW 172235Z AUTO 21010KT 10SM BKN017 BKN046 26/21 A2986 RMK AO2
KCLW 172215Z AUTO 22009G15KT 200V260 10SM SCT019 SCT027 BKN046 26/21 A2986 RMK AO2
KCLW 172155Z AUTO 24007KT 10SM BKN021 BKN027 BKN042 27/21 A2986 RMK AO2
KCLW 172135Z AUTO 24007G14KT 210V270 10SM BKN021 BKN030 BKN041 27/21 A2985 RMK AO2
KCLW 172115Z AUTO 23009G16KT 10SM BKN019 BKN028 27/21 A2985 RMK AO2
KCLW 172055Z AUTO 23010G16KT 10SM BKN019 SCT026 27/21 A2985 RMK AO2
KCLW 172035Z AUTO 24008G14KT 10SM SCT021 27/21 A2985 RMK AO2
KCLW 172015Z AUTO 26010G16KT 10SM SCT023 SCT033 SCT040 27/21 A2985 RMK AO2
KCLW 171955Z AUTO 26009G16KT 230V290 10SM BKN023 27/21 A2986 RMK AO2
KCLW 171935Z AUTO 23010G16KT 10SM SCT023 27/21 A2986 RMK AO2
KCLW 171915Z AUTO 25012G17KT 10SM SCT023 SCT044 27/20 A2987 RMK AO2
KCLW 171855Z AUTO 24012G16KT 10SM SCT023 SCT029 SCT042 27/20 A2987 RMK AO2
KCLW 171835Z AUTO 25010G16KT 10SM BKN021 BKN030 BKN045 27/21 A2988 RMK AO2
KCLW 171815Z AUTO 23009G15KT 180V270 10SM BKN021 BKN030 BKN046 27/21 A2988 RMK AO2
KCLW 171755Z AUTO 24007G14KT 10SM SCT021 27/21 A2989 RMK AO2
KCLW 171735Z AUTO 24009KT 10SM SCT021 27/21 A2989 RMK AO2
KCLW 171715Z AUTO 24010G15KT 10SM SCT019 SCT025 27/21 A2990 RMK AO2
KCLW 171655Z AUTO 22009G17KT 10SM SCT021 27/21 A2990 RMK AO2
KCLW 171635Z AUTO 24011G14KT 210V270 10SM SCT018 26/21 A2990 RMK AO2
KCLW 171615Z AUTO 23009G14KT 10SM SCT016 26/21 A2991 RMK AO2
KCLW 171555Z AUTO 23010G14KT 10SM SCT016 26/21 A2992 RMK AO2
KCLW 171535Z AUTO 24009KT 10SM SCT016 SCT039 SCT047 26/21 A2992 RMK AO2
KCLW 171515Z AUTO 24010G15KT 10SM SCT014 BKN041 BKN050 25/21 A2992 RMK AO2
KCLW 171455Z AUTO 24009KT 10SM BKN014 BKN044 BKN050 25/21 A2992 RMK AO2
KCLW 171435Z AUTO 23009KT 10SM SCT012 BKN050 24/21 A2991 RMK AO2
KCLW 171415Z AUTO 24005KT 10SM SCT010 24/21 A2991 RMK AO2
KCLW 171355Z AUTO 23005KT 10SM BKN010 23/21 A2989 RMK AO2
KCLW 171335Z AUTO 22006KT 10SM BKN010 23/21 A2989 RMK AO2
KCLW 171315Z AUTO 22005KT 10SM SCT010 23/21 A2988 RMK AO2
KCLW 171255Z AUTO 21004KT 10SM SCT008 23/21 A2988 RMK AO2
KCLW 171235Z AUTO 21005KT 10SM SCT010 23/21 A2988 RMK AO2
KCLW 171215Z AUTO 21007KT 10SM SCT008 23/21 A2988 RMK AO2
KCLW 171155Z AUTO 23006KT 7SM BKN008 23/21 A2988 RMK AO2
KCLW 171135Z AUTO 22006KT 7SM BKN008 23/21 A2986 RMK AO2
KCLW 171115Z AUTO 22004KT 7SM BKN008 BKN012 23/21 A2986 RMK AO2
KCLW 171055Z AUTO 22005KT 7SM BKN008 22/21 A2984 RMK AO2
KCLW 171035Z AUTO 22007KT 7SM BKN008 23/21 A2984 RMK AO2
KCLW 171015Z AUTO 21007KT 7SM BKN008 22/21 A2984 RMK AO2
KCLW 170955Z AUTO 22005KT 7SM SCT008 22/21 A2984 RMK AO2
KCLW 170935Z AUTO 21005KT 7SM SCT008 22/21 A2983 RMK AO2
KCLW 170915Z AUTO 22005KT 7SM SCT008 22/21 A2983 RMK AO2
KCLW 170855Z AUTO 23005KT 7SM SCT008 22/21 A2983 RMK AO2